createdAt,value
2023-05-19T00:05:03.658Z,54.70
2023-05-19T00:12:38.583Z,55.14
2023-05-19T00:20:14.419Z,55.19
2023-05-19T00:27:48.302Z,55.16
2023-05-19T00:35:24.655Z,55.33
2023-05-19T00:42:58.476Z,56.02
2023-05-19T00:50:34.467Z,56.04
2023-05-19T00:58:10.676Z,56.15
2023-05-19T01:05:45.950Z,56.89
2023-05-19T01:13:19.861Z,57.38
2023-05-19T01:21:05.814Z,57.66
2023-05-19T01:29:13.985Z,58.03
2023-05-19T01:36:50.381Z,58.88
2023-05-19T01:44:25.264Z,59.32
2023-05-19T01:52:00.594Z,59.65
2023-05-19T01:59:44.800Z,59.75
2023-05-19T02:07:28.081Z,60.15
2023-05-19T02:15:07.375Z,60.38
2023-05-19T02:22:42.913Z,62.10
2023-05-19T02:30:16.942Z,61.66
2023-05-19T02:37:52.536Z,62.29
2023-05-19T02:45:28.618Z,62.84
2023-05-19T02:53:05.319Z,63.08
2023-05-19T03:00:39.247Z,64.45
2023-05-19T03:08:14.632Z,64.23
2023-05-19T03:15:48.948Z,64.59
2023-05-19T03:23:24.192Z,65.17
2023-05-19T03:30:58.032Z,65.31
2023-05-19T03:38:33.282Z,64.83
2023-05-19T03:46:07.245Z,65.65
2023-05-19T03:53:42.542Z,67.44
2023-05-19T04:01:16.569Z,67.58
2023-05-19T04:08:51.985Z,66.40
2023-05-19T04:16:25.954Z,66.63
2023-05-19T04:24:01.268Z,67.26
2023-05-19T04:31:36.098Z,67.48
2023-05-19T04:39:12.365Z,67.29
2023-05-19T04:46:46.265Z,66.40
2023-05-19T04:54:21.573Z,65.49
2023-05-19T05:01:56.279Z,64.49
2023-05-19T05:09:31.698Z,64.25
2023-05-19T05:17:06.090Z,62.52
2023-05-19T05:24:42.073Z,62.21
2023-05-19T05:32:17.213Z,61.81
2023-05-19T05:39:52.798Z,60.51
2023-05-19T05:47:27.608Z,60.41
2023-05-19T05:55:03.745Z,60.11
2023-05-19T06:02:38.296Z,58.83
2023-05-19T06:10:13.850Z,59.22
2023-05-19T06:17:47.794Z,59.26
2023-05-19T06:25:24.755Z,57.66
2023-05-19T06:32:59.125Z,57.10
2023-05-19T06:40:34.488Z,56.49
2023-05-19T06:48:08.546Z,56.98
2023-05-19T06:55:57.338Z,56.61
2023-05-19T07:03:32.503Z,55.41
2023-05-19T07:11:07.863Z,53.46
2023-05-19T07:18:41.761Z,53.74
2023-05-19T07:26:17.076Z,52.42
2023-05-19T07:33:53.020Z,50.65
2023-05-19T07:41:29.770Z,49.50
2023-05-19T07:49:05.550Z,47.00
2023-05-19T08:05:34.014Z,47.00
2023-05-19T08:13:07.880Z,44.62
2023-05-19T08:20:43.149Z,44.09
2023-05-19T08:28:17.038Z,42.93
2023-05-19T08:35:52.416Z,43.87
2023-05-19T08:43:26.613Z,42.94
2023-05-19T08:51:11.033Z,42.67
2023-05-19T08:58:46.017Z,41.82
2023-05-19T09:06:21.336Z,43.51
2023-05-19T09:13:55.184Z,42.88
2023-05-19T09:21:32.095Z,42.51
2023-05-19T09:29:12.449Z,40.91
2023-05-19T09:36:50.703Z,40.02
2023-05-19T09:44:28.979Z,39.36
2023-05-19T09:52:22.509Z,37.62
2023-05-19T09:59:58.035Z,37.05
2023-05-19T10:07:34.108Z,35.23
2023-05-19T10:15:11.406Z,35.20
2023-05-19T10:22:48.630Z,35.36
2023-05-19T10:30:28.022Z,36.60
2023-05-19T10:38:14.901Z,36.66
2023-05-19T10:45:50.241Z,36.92
2023-05-19T10:53:32.459Z,36.76
2023-05-19T11:01:09.945Z,37.14
2023-05-19T11:08:45.341Z,36.53
2023-05-19T11:16:20.859Z,36.31
2023-05-19T11:23:58.071Z,36.51
2023-05-19T11:31:33.879Z,36.61
2023-05-19T11:39:10.592Z,36.28
2023-05-19T11:46:44.838Z,36.18
2023-05-19T11:54:20.278Z,35.86
2023-05-19T12:01:54.144Z,36.49
2023-05-19T12:09:30.926Z,36.51
2023-05-19T12:17:12.234Z,36.32
2023-05-19T12:24:49.076Z,36.14
2023-05-19T12:32:25.389Z,36.24
2023-05-19T12:40:30.639Z,36.18
2023-05-19T12:48:06.606Z,36.11
2023-05-19T12:55:43.400Z,36.20
2023-05-19T13:03:18.774Z,36.59
2023-05-19T13:10:55.994Z,35.64
2023-05-19T13:18:32.250Z,35.86
2023-05-19T13:26:07.851Z,35.99
2023-05-19T13:33:41.847Z,36.94
2023-05-19T13:41:18.508Z,36.36
2023-05-19T13:48:52.556Z,36.79
2023-05-19T13:56:28.310Z,35.59
2023-05-19T14:04:02.748Z,36.20
2023-05-19T14:11:38.510Z,36.38
2023-05-19T14:27:05.451Z,35.77
2023-05-19T14:34:39.392Z,36.38
2023-05-19T14:42:14.970Z,36.62
2023-05-19T14:49:48.949Z,36.22
2023-05-19T15:05:16.502Z,36.00
2023-05-19T15:12:52.090Z,36.53
2023-05-19T15:20:27.443Z,36.23
2023-05-19T15:28:04.932Z,36.51
2023-05-19T15:35:38.903Z,36.30
2023-05-19T15:43:14.472Z,37.50
2023-05-19T15:50:54.724Z,37.58
2023-05-19T15:58:30.177Z,37.50
2023-05-19T16:06:04.235Z,36.68
2023-05-19T16:13:39.737Z,37.36
2023-05-19T16:21:13.742Z,37.37
2023-05-19T16:28:48.945Z,37.71
2023-05-19T16:36:23.533Z,37.44
2023-05-19T16:43:58.992Z,37.40
2023-05-19T16:51:33.002Z,37.09
2023-05-19T16:59:10.108Z,36.89
2023-05-19T17:06:46.916Z,37.05
2023-05-19T17:14:22.436Z,37.48
2023-05-19T17:21:56.378Z,38.04
2023-05-19T17:29:31.674Z,38.39
2023-05-19T17:44:58.492Z,39.24
2023-05-19T17:52:33.138Z,39.48
2023-05-19T18:00:10.663Z,39.72
2023-05-19T18:07:45.587Z,40.18
2023-05-19T18:15:21.025Z,40.50
2023-05-19T18:22:54.920Z,40.69
2023-05-19T18:30:30.181Z,40.35
2023-05-19T18:38:04.325Z,40.35
2023-05-19T18:45:39.847Z,40.67
2023-05-19T18:53:13.614Z,41.36
2023-05-19T19:00:48.798Z,42.07
2023-05-19T19:08:22.692Z,42.97
2023-05-19T19:15:57.948Z,43.68
2023-05-19T19:23:31.726Z,44.71
2023-05-19T19:31:07.064Z,45.64
2023-05-19T19:38:40.976Z,46.06
2023-05-19T19:46:16.183Z,47.02
2023-05-19T19:53:50.201Z,47.24
2023-05-19T20:01:27.438Z,47.48
2023-05-19T20:09:01.430Z,47.84
2023-05-19T20:16:36.615Z,48.66
2023-05-19T20:24:10.357Z,48.86
2023-05-19T20:31:46.557Z,49.62
2023-05-19T20:39:20.661Z,49.64
2023-05-19T20:46:55.805Z,49.89
2023-05-19T20:54:29.705Z,50.59
2023-05-19T21:02:06.218Z,50.64
2023-05-19T21:09:40.188Z,51.30
2023-05-19T21:17:15.376Z,51.24
2023-05-19T21:24:49.274Z,51.24
2023-05-19T21:32:24.682Z,51.82
2023-05-19T21:39:58.804Z,52.31
2023-05-19T21:47:34.078Z,52.75
2023-05-19T21:55:09.876Z,53.14
2023-05-19T22:02:45.231Z,54.44
2023-05-19T22:10:19.612Z,54.50
2023-05-19T22:17:54.892Z,54.44
2023-05-19T22:25:28.791Z,54.70
2023-05-19T22:33:03.938Z,55.47
2023-05-19T22:40:37.733Z,55.69
2023-05-19T22:48:12.783Z,55.86
2023-05-19T22:55:46.511Z,56.70
2023-05-19T23:03:21.830Z,57.49
2023-05-19T23:11:00.847Z,58.61
2023-05-19T23:18:36.122Z,60.51
2023-05-19T23:26:09.999Z,61.30
2023-05-19T23:33:45.177Z,62.59
2023-05-19T23:41:18.888Z,61.84
2023-05-19T23:48:54.027Z,63.36
2023-05-19T23:56:27.864Z,64.43
